This is the latest recevied weather packets stored in our database for station/object SQ9IWE-13. If no packets are shown the sender has not sent any weather packets the latest 10 day(s).
| Time | Temp. | Humidity | Pressure | Rain* | Wind** | Luminosity | Snow |
|---|---|---|---|---|---|---|---|
| 1777764601 | 9.44° C | 69% | 1019.1 hPa | - | - | - | - |
| 1777764001 | 9.44° C | 72% | 1019.1 hPa | - | - | - | - |
| 1777763401 | 9.44° C | 69% | 1019.4 hPa | - | - | - | - |
| 1777762801 | 10° C | 68% | 1019.5 hPa | - | - | - | - |
| 1777762201 | 10° C | 66% | 1019.4 hPa | - | - | - | - |
| 1777761601 | 10.56° C | 65% | 1019.5 hPa | - | - | - | - |
| 1777761001 | 11.11° C | 63% | 1019.5 hPa | - | - | - | - |
| 1777760401 | 11.11° C | 63% | 1019.6 hPa | - | - | - | - |
| 1777759801 | 11.11° C | 63% | 1019.7 hPa | - | - | - | - |
| 1777759201 | 11.11° C | 64% | 1019.7 hPa | - | - | - | - |
| 1777758601 | 11.67° C | 62% | 1019.8 hPa | - | - | - | - |
| 1777756801 | 12.78° C | 57% | 1020.1 hPa | - | - | - | - |
| 1777756200 | 12.78° C | 56% | 1020 hPa | - | - | - | - |
| 1777755600 | 13.33° C | 54% | 1020.1 hPa | - | - | - | - |
| 1777755000 | 13.89° C | 52% | 1020.1 hPa | - | - | - | - |
| 1777754400 | 14.44° C | 51% | 1020.2 hPa | - | - | - | - |
| 1777753800 | 14.44° C | 51% | 1020.2 hPa | - | - | - | - |
| 1777753200 | 14.44° C | 51% | 1020.3 hPa | - | - | - | - |
| 1777752600 | 14.44° C | 50% | 1020.3 hPa | - | - | - | - |
| 1777752000 | 15° C | 49% | 1020.4 hPa | - | - | - | - |
| 1777751400 | 15° C | 49% | 1020.5 hPa | - | - | - | - |
| 1777750200 | 16.11° C | 48% | 1020.5 hPa | - | - | - | - |
| 1777749600 | 16.11° C | 47% | 1020.5 hPa | - | - | - | - |
| 1777749000 | 16.11° C | 47% | 1020.5 hPa | - | - | - | - |
| 1777748400 | 16.67° C | 47% | 1020.3 hPa | - | - | - | - |
* Rain since midnight (hover to see other rain measurements)
** Current wind speed in m/s (hover to see current wind gust speed)